createdAt,value
2018-03-06T00:00:11.033Z,60.23
2018-03-06T00:02:39.368Z,58.50
2018-03-06T00:05:07.801Z,56.07
2018-03-06T00:07:36.139Z,57.97
2018-03-06T00:10:04.495Z,67.70
2018-03-06T00:12:32.845Z,57.03
2018-03-06T00:15:01.154Z,63.30
2018-03-06T00:17:29.491Z,54.87
2018-03-06T00:19:57.845Z,63.83
2018-03-06T00:22:26.191Z,65.03
2018-03-06T00:24:54.530Z,59.93
2018-03-06T00:27:22.865Z,63.90
2018-03-06T00:29:51.211Z,69.37
2018-03-06T00:32:19.594Z,58.37
2018-03-06T00:34:47.919Z,61.73
2018-03-06T00:37:16.258Z,60.47
2018-03-06T00:39:44.582Z,64.67
2018-03-06T00:42:12.966Z,64.47
2018-03-06T00:44:41.292Z,66.23
2018-03-06T00:47:09.638Z,67.50
2018-03-06T00:49:38.024Z,70.40
2018-03-06T00:52:06.353Z,63.13
2018-03-06T00:54:34.746Z,64.93
2018-03-06T00:57:03.069Z,63.27
2018-03-06T00:59:31.408Z,63.10
2018-03-06T01:01:59.732Z,71.40
2018-03-06T01:04:28.060Z,64.63
2018-03-06T01:06:56.381Z,58.93
2018-03-06T01:09:24.717Z,55.97
2018-03-06T01:11:53.064Z,65.07
2018-03-06T01:14:21.412Z,58.43
2018-03-06T01:16:49.709Z,61.27
2018-03-06T01:19:18.208Z,60.10
2018-03-06T01:21:46.567Z,52.03
2018-03-06T01:24:14.916Z,66.10
2018-03-06T01:26:43.241Z,58.40
2018-03-06T01:29:11.597Z,59.53
2018-03-06T01:31:39.934Z,55.50
2018-03-06T01:34:08.272Z,59.87
2018-03-06T01:36:36.691Z,55.77
2018-03-06T01:39:05.035Z,58.43
2018-03-06T01:41:33.348Z,50.87
2018-03-06T01:44:01.753Z,55.97
2018-03-06T01:46:30.072Z,55.90
2018-03-06T01:48:58.414Z,58.97
2018-03-06T01:51:26.737Z,52.87
2018-03-06T01:53:55.056Z,60.80
2018-03-06T01:56:23.381Z,54.40
2018-03-06T01:58:51.707Z,63.87
2018-03-06T02:01:20.162Z,56.23
2018-03-06T02:03:48.594Z,59.23
2018-03-06T02:06:17.003Z,66.73
2018-03-06T02:08:45.360Z,59.80
2018-03-06T02:11:13.680Z,55.60
2018-03-06T02:13:42.032Z,56.30
2018-03-06T02:16:10.368Z,58.97
2018-03-06T02:18:38.708Z,68.27
2018-03-06T02:21:07.064Z,56.70
2018-03-06T02:23:35.402Z,60.10
2018-03-06T02:26:03.729Z,66.17
2018-03-06T02:28:32.223Z,65.87
2018-03-06T02:31:00.578Z,60.33
2018-03-06T02:33:28.894Z,57.00
2018-03-06T02:35:57.230Z,61.87
2018-03-06T02:38:25.578Z,61.27
2018-03-06T02:40:53.929Z,58.93
2018-03-06T02:43:22.265Z,57.10
2018-03-06T02:45:54.234Z,63.90
2018-03-06T02:48:22.593Z,64.07
2018-03-06T02:50:50.938Z,53.00
2018-03-06T02:53:19.262Z,55.80
2018-03-06T02:55:47.689Z,62.20
2018-03-06T02:58:16.012Z,56.43
2018-03-06T03:00:44.368Z,64.90
2018-03-06T03:03:12.697Z,58.23
2018-03-06T03:05:41.057Z,67.17
2018-03-06T03:08:09.501Z,54.77
2018-03-06T03:10:37.840Z,51.27
2018-03-06T03:13:06.202Z,53.30
2018-03-06T03:15:34.551Z,55.70
2018-03-06T03:18:02.879Z,52.37
2018-03-06T03:20:31.234Z,59.10
2018-03-06T03:22:59.606Z,66.40
2018-03-06T03:25:27.995Z,59.97
2018-03-06T03:27:56.346Z,59.77
2018-03-06T03:30:24.697Z,61.50
2018-03-06T03:32:53.060Z,60.47
2018-03-06T03:35:21.450Z,70.50
2018-03-06T03:37:49.787Z,60.87
2018-03-06T03:40:18.143Z,72.07
2018-03-06T03:42:46.747Z,60.73
2018-03-06T03:45:15.065Z,69.17
2018-03-06T03:47:43.420Z,69.00
2018-03-06T03:50:11.742Z,66.57
2018-03-06T03:52:40.107Z,67.87
2018-03-06T03:55:08.429Z,63.73
2018-03-06T03:57:36.841Z,62.63
2018-03-06T04:00:05.231Z,75.17
2018-03-06T04:02:33.586Z,72.43
2018-03-06T04:05:01.988Z,64.33
2018-03-06T04:07:30.368Z,66.37
2018-03-06T04:09:58.748Z,68.20
2018-03-06T04:12:27.074Z,71.70
2018-03-06T04:14:55.412Z,65.50
2018-03-06T04:17:23.748Z,67.57
2018-03-06T04:19:52.180Z,79.40
2018-03-06T04:22:20.623Z,70.00
2018-03-06T04:24:48.983Z,69.53
2018-03-06T04:27:17.466Z,66.63
2018-03-06T04:29:45.891Z,68.73
2018-03-06T04:32:14.285Z,75.97
2018-03-06T04:34:42.789Z,67.67
2018-03-06T04:37:11.192Z,64.27
2018-03-06T04:39:39.526Z,73.47
2018-03-06T04:42:07.869Z,66.27
2018-03-06T04:44:36.255Z,72.10
2018-03-06T04:47:04.585Z,67.30
2018-03-06T04:49:32.902Z,66.33
2018-03-06T04:52:01.325Z,64.93
2018-03-06T04:54:29.648Z,66.63
2018-03-06T04:56:58.015Z,65.93
2018-03-06T04:59:26.335Z,67.87
2018-03-06T05:01:54.663Z,63.70
2018-03-06T05:04:22.985Z,59.33
2018-03-06T05:06:51.643Z,67.37
2018-03-06T05:09:20.732Z,59.57
2018-03-06T05:11:49.049Z,70.50
2018-03-06T05:14:17.393Z,56.67
2018-03-06T05:16:45.808Z,65.43
2018-03-06T05:19:14.148Z,60.73
2018-03-06T05:21:42.589Z,65.13
2018-03-06T05:24:11.091Z,65.33
2018-03-06T05:26:39.527Z,70.30
2018-03-06T05:29:07.878Z,62.90
2018-03-06T05:31:39.829Z,61.37
2018-03-06T05:34:08.142Z,64.67
2018-03-06T05:36:36.474Z,65.80
2018-03-06T05:39:04.831Z,60.20
2018-03-06T05:41:33.266Z,61.17
2018-03-06T05:44:01.658Z,61.83
2018-03-06T05:46:30.038Z,59.13
2018-03-06T05:48:58.539Z,66.90
2018-03-06T05:51:26.862Z,63.17
2018-03-06T05:53:55.243Z,58.63
2018-03-06T05:56:23.571Z,64.70
2018-03-06T05:58:52.015Z,63.70
2018-03-06T06:01:20.341Z,68.60
2018-03-06T06:03:48.673Z,72.87
2018-03-06T06:06:17.010Z,63.93
2018-03-06T06:08:45.340Z,60.70
2018-03-06T06:11:13.671Z,67.13
2018-03-06T06:13:42.034Z,63.80
2018-03-06T06:16:10.401Z,73.37
2018-03-06T06:18:38.751Z,66.57
2018-03-06T06:21:07.097Z,66.07
2018-03-06T06:23:35.455Z,67.77
2018-03-06T06:26:03.772Z,61.30
2018-03-06T06:28:32.210Z,65.97
2018-03-06T06:31:00.606Z,60.60
2018-03-06T06:33:28.998Z,65.17
2018-03-06T06:35:57.314Z,62.50
2018-03-06T06:38:25.679Z,61.43
2018-03-06T06:40:54.018Z,66.20
2018-03-06T06:43:22.329Z,56.67
2018-03-06T06:45:50.710Z,62.07
2018-03-06T06:48:19.035Z,60.03
2018-03-06T06:50:47.433Z,65.03
2018-03-06T06:53:15.757Z,55.77
2018-03-06T06:55:44.118Z,70.77
2018-03-06T06:58:12.434Z,60.00
2018-03-06T07:00:40.756Z,58.97
2018-03-06T07:03:09.202Z,50.10
2018-03-06T07:05:37.537Z,59.40
2018-03-06T07:08:05.860Z,58.77
2018-03-06T07:10:34.206Z,62.43
2018-03-06T07:13:02.565Z,57.37
2018-03-06T07:15:30.954Z,57.50
2018-03-06T07:17:59.270Z,55.33
2018-03-06T07:20:27.639Z,57.83
2018-03-06T07:22:56.048Z,59.20
2018-03-06T07:25:24.423Z,55.37
2018-03-06T07:27:52.829Z,57.13
2018-03-06T07:30:21.169Z,57.53
2018-03-06T07:32:49.474Z,50.80
2018-03-06T07:35:17.835Z,47.77
2018-03-06T07:37:46.194Z,55.47
2018-03-06T07:40:14.566Z,60.57
2018-03-06T07:42:42.896Z,52.40
2018-03-06T07:45:11.221Z,55.73
2018-03-06T07:47:39.584Z,44.60
2018-03-06T07:50:08.084Z,54.47
2018-03-06T07:52:36.495Z,52.63
2018-03-06T07:55:04.814Z,50.07
2018-03-06T07:57:33.142Z,57.60
2018-03-06T08:00:01.469Z,51.30
2018-03-06T08:02:29.852Z,49.73
2018-03-06T08:04:58.176Z,48.33
2018-03-06T08:07:26.505Z,55.33
2018-03-06T08:09:54.878Z,51.40
2018-03-06T08:12:23.200Z,50.83
2018-03-06T08:14:51.752Z,51.83
2018-03-06T08:17:20.094Z,49.67
2018-03-06T08:19:48.409Z,47.37
2018-03-06T08:22:16.060Z,53.93
2018-03-06T08:24:44.141Z,52.83
2018-03-06T08:27:12.578Z,51.27
2018-03-06T08:29:40.906Z,51.67
2018-03-06T08:32:09.276Z,46.10
2018-03-06T08:34:37.658Z,51.43
2018-03-06T08:37:05.981Z,50.47
2018-03-06T08:39:34.318Z,48.03
2018-03-06T08:42:02.638Z,50.27
2018-03-06T08:44:30.982Z,48.67
2018-03-06T08:46:59.301Z,47.93
2018-03-06T08:49:27.652Z,50.00
2018-03-06T08:51:55.961Z,45.03
2018-03-06T08:54:24.295Z,50.37
2018-03-06T08:56:52.627Z,41.77
2018-03-06T08:59:21.075Z,47.70
2018-03-06T09:01:49.386Z,46.87
2018-03-06T09:04:17.865Z,47.93
2018-03-06T09:06:46.293Z,40.93
2018-03-06T09:09:14.624Z,40.57
2018-03-06T09:11:42.953Z,48.13
2018-03-06T09:14:11.284Z,42.40
2018-03-06T09:16:39.609Z,41.47
2018-03-06T09:19:07.953Z,41.03
2018-03-06T09:21:36.287Z,38.90
2018-03-06T09:24:04.618Z,34.63
2018-03-06T09:26:32.937Z,38.60
2018-03-06T09:29:01.279Z,37.80
2018-03-06T09:31:29.594Z,40.20
2018-03-06T09:33:58.049Z,42.10
2018-03-06T09:36:26.398Z,40.67
2018-03-06T09:38:54.705Z,40.50
2018-03-06T09:41:23.046Z,40.37
2018-03-06T09:43:51.563Z,39.70
2018-03-06T09:46:19.913Z,36.20
2018-03-06T09:48:48.250Z,41.87
2018-03-06T09:51:16.591Z,37.93
2018-03-06T09:53:44.922Z,34.57
2018-03-06T09:56:13.245Z,38.13
2018-03-06T09:58:41.753Z,37.03
2018-03-06T10:01:10.173Z,36.97
2018-03-06T10:03:38.516Z,34.03
2018-03-06T10:06:06.923Z,37.03
2018-03-06T10:08:35.268Z,40.10
2018-03-06T10:11:03.622Z,34.57
2018-03-06T10:13:31.936Z,39.63
2018-03-06T10:16:00.271Z,40.57
2018-03-06T10:18:28.595Z,37.03
2018-03-06T10:20:57.006Z,37.17
2018-03-06T10:23:25.381Z,29.37
2018-03-06T10:25:53.739Z,29.57
2018-03-06T10:28:22.074Z,34.07
2018-03-06T10:30:51.038Z,34.47
2018-03-06T10:33:19.383Z,33.93
2018-03-06T10:35:47.764Z,33.00
2018-03-06T10:38:16.377Z,30.70
2018-03-06T10:40:44.710Z,29.97
2018-03-06T10:43:13.052Z,29.97
2018-03-06T10:45:41.378Z,39.63
2018-03-06T10:48:09.823Z,34.73
2018-03-06T10:50:38.142Z,33.80
2018-03-06T10:53:06.471Z,33.37
2018-03-06T10:55:34.899Z,32.83
2018-03-06T10:58:03.431Z,31.57
2018-03-06T11:00:37.495Z,33.83
2018-03-06T11:03:05.834Z,32.60
2018-03-06T11:05:34.162Z,30.97
2018-03-06T11:08:02.499Z,30.63
2018-03-06T11:10:30.828Z,31.03
2018-03-06T11:12:59.173Z,31.40
2018-03-06T11:15:27.575Z,32.30
2018-03-06T11:17:55.932Z,29.17
2018-03-06T11:20:24.250Z,30.87
2018-03-06T11:22:52.642Z,32.97
2018-03-06T11:25:20.960Z,29.13
2018-03-06T11:27:49.315Z,29.47
2018-03-06T11:30:17.910Z,28.50
2018-03-06T11:32:46.285Z,26.97
2018-03-06T11:35:14.614Z,29.73
2018-03-06T11:37:43.027Z,30.27
2018-03-06T11:40:11.346Z,30.10
2018-03-06T11:42:39.729Z,25.60
2018-03-06T11:45:08.179Z,28.60
2018-03-06T11:47:36.535Z,27.93
2018-03-06T11:50:05.014Z,27.93
2018-03-06T11:52:33.370Z,24.40
2018-03-06T11:55:01.742Z,26.87
2018-03-06T11:57:30.079Z,27.27
2018-03-06T11:59:58.419Z,30.03
2018-03-06T12:02:26.745Z,31.10
2018-03-06T12:04:55.089Z,27.53
2018-03-06T12:07:23.501Z,28.60
2018-03-06T12:09:51.901Z,25.43
2018-03-06T12:12:20.310Z,28.50
2018-03-06T12:14:48.671Z,24.43
2018-03-06T12:17:16.999Z,31.03
2018-03-06T12:19:45.335Z,26.47
2018-03-06T12:22:13.664Z,27.97
2018-03-06T12:24:42.010Z,29.17
2018-03-06T12:27:10.330Z,28.63
2018-03-06T12:29:38.685Z,25.00
2018-03-06T12:32:07.147Z,27.90
2018-03-06T12:34:35.515Z,26.60
2018-03-06T12:37:03.842Z,27.33
2018-03-06T12:39:32.210Z,26.77
2018-03-06T12:42:01.910Z,27.20
2018-03-06T12:44:30.236Z,25.60
2018-03-06T12:46:58.597Z,26.47
2018-03-06T12:49:26.938Z,28.97
2018-03-06T12:51:55.295Z,31.33
2018-03-06T12:54:23.637Z,27.90
2018-03-06T12:56:52.317Z,29.67
2018-03-06T12:59:20.670Z,27.63
2018-03-06T13:01:49.167Z,27.50
2018-03-06T13:04:17.479Z,29.20
2018-03-06T13:06:45.815Z,28.07
2018-03-06T13:09:14.146Z,27.97
2018-03-06T13:11:42.492Z,31.37
2018-03-06T13:14:10.803Z,27.47
2018-03-06T13:16:39.198Z,29.87
2018-03-06T13:19:07.514Z,30.37
2018-03-06T13:21:36.042Z,28.47
2018-03-06T13:24:04.366Z,30.53
2018-03-06T13:26:32.774Z,26.00
2018-03-06T13:29:01.092Z,29.30
2018-03-06T13:31:29.424Z,32.37
2018-03-06T13:33:58.078Z,31.50
2018-03-06T13:36:26.410Z,28.03
2018-03-06T13:38:54.777Z,32.97
2018-03-06T13:41:23.157Z,30.63
2018-03-06T13:43:51.494Z,28.07
2018-03-06T13:46:19.830Z,26.50
2018-03-06T13:48:48.302Z,38.03
2018-03-06T13:51:16.622Z,28.03
2018-03-06T13:53:44.999Z,31.43
2018-03-06T13:56:13.353Z,32.97
2018-03-06T13:58:41.701Z,29.33
2018-03-06T14:01:10.036Z,29.13
2018-03-06T14:03:38.363Z,32.67
2018-03-06T14:06:06.780Z,28.93
2018-03-06T14:08:35.116Z,27.00
2018-03-06T14:11:03.439Z,28.00
2018-03-06T14:13:31.785Z,34.90
2018-03-06T14:16:00.099Z,28.43
2018-03-06T14:18:28.516Z,28.60
2018-03-06T14:20:56.830Z,25.47
2018-03-06T14:23:25.174Z,28.93
2018-03-06T14:25:53.602Z,29.50
2018-03-06T14:28:21.949Z,25.97
2018-03-06T14:30:50.266Z,29.40
2018-03-06T14:33:18.632Z,30.40
2018-03-06T14:35:46.980Z,29.13
2018-03-06T14:38:15.323Z,27.33
2018-03-06T14:40:43.704Z,30.40
2018-03-06T14:43:12.153Z,28.60
2018-03-06T14:45:40.488Z,28.20
2018-03-06T14:48:08.808Z,27.53
2018-03-06T14:50:37.220Z,27.37
2018-03-06T14:53:05.535Z,26.80
2018-03-06T14:55:33.908Z,27.87
2018-03-06T14:58:02.286Z,29.97
2018-03-06T15:00:30.621Z,29.10
2018-03-06T15:02:58.953Z,33.27
2018-03-06T15:05:27.309Z,29.13
2018-03-06T15:07:55.769Z,28.23
2018-03-06T15:10:24.149Z,27.77
2018-03-06T15:12:52.490Z,32.83
2018-03-06T15:15:20.934Z,30.53
2018-03-06T15:17:49.318Z,25.97
2018-03-06T15:20:17.655Z,28.97
2018-03-06T15:22:45.990Z,25.50
2018-03-06T15:25:14.335Z,28.33
2018-03-06T15:27:42.668Z,32.33
2018-03-06T15:30:11.010Z,33.33
2018-03-06T15:32:39.351Z,36.53
2018-03-06T15:35:07.736Z,37.20
2018-03-06T15:37:36.070Z,43.37
2018-03-06T15:40:04.414Z,46.07
2018-03-06T15:42:32.749Z,47.67
2018-03-06T15:45:01.096Z,44.10
2018-03-06T15:47:29.434Z,51.97
2018-03-06T15:49:57.768Z,51.50
2018-03-06T15:52:26.263Z,50.00
2018-03-06T15:54:54.606Z,47.13
2018-03-06T15:57:23.016Z,48.30
2018-03-06T15:59:51.416Z,51.60
2018-03-06T16:02:19.782Z,51.77
2018-03-06T16:04:48.126Z,52.23
2018-03-06T16:07:16.544Z,47.97
2018-03-06T16:09:44.954Z,47.33
2018-03-06T16:12:13.626Z,58.30
2018-03-06T16:14:41.997Z,53.77
2018-03-06T16:17:10.398Z,58.07
2018-03-06T16:19:38.749Z,63.83
2018-03-06T16:22:07.130Z,62.23
2018-03-06T16:24:35.568Z,56.07
2018-03-06T16:27:03.940Z,59.07
2018-03-06T16:29:32.356Z,59.93
2018-03-06T16:32:00.899Z,59.07
2018-03-06T16:34:29.234Z,62.50
2018-03-06T16:36:57.562Z,58.30
2018-03-06T16:39:25.890Z,67.30
2018-03-06T16:41:54.218Z,61.47
2018-03-06T16:44:22.558Z,60.00
2018-03-06T16:46:50.888Z,64.70
2018-03-06T16:49:19.306Z,61.67
2018-03-06T16:51:47.589Z,61.10
2018-03-06T16:54:15.915Z,70.23
2018-03-06T16:56:44.309Z,65.13
2018-03-06T16:59:12.668Z,61.63
2018-03-06T17:01:48.861Z,61.00
2018-03-06T17:04:17.277Z,55.13
2018-03-06T17:06:45.600Z,60.73
2018-03-06T17:09:13.934Z,60.10
2018-03-06T17:11:42.366Z,64.20
2018-03-06T17:14:11.486Z,57.73
2018-03-06T17:16:39.845Z,66.60
2018-03-06T17:19:08.184Z,55.70
2018-03-06T17:21:36.501Z,54.20
2018-03-06T17:24:04.833Z,51.80
2018-03-06T17:26:33.162Z,51.47
2018-03-06T17:29:01.506Z,50.13
2018-03-06T17:31:29.909Z,41.87
2018-03-06T17:33:58.454Z,51.57
2018-03-06T17:36:26.775Z,48.87
2018-03-06T17:38:55.136Z,48.23
2018-03-06T17:41:23.479Z,51.37
2018-03-06T17:43:51.891Z,50.40
2018-03-06T17:46:20.259Z,48.73
2018-03-06T17:48:48.589Z,48.73
2018-03-06T17:51:16.941Z,49.27
2018-03-06T17:53:45.324Z,48.23
2018-03-06T17:56:13.712Z,47.50
2018-03-06T17:58:41.994Z,48.90
2018-03-06T18:01:10.404Z,44.03
2018-03-06T18:03:38.793Z,54.70
2018-03-06T18:06:07.202Z,49.80
2018-03-06T18:08:35.526Z,50.53
2018-03-06T18:11:03.878Z,47.97
2018-03-06T18:13:32.230Z,50.23
2018-03-06T18:16:00.562Z,53.90
2018-03-06T18:18:28.882Z,46.67
2018-03-06T18:20:57.251Z,52.70
2018-03-06T18:23:25.568Z,47.83
2018-03-06T18:25:53.906Z,50.83
2018-03-06T18:28:22.268Z,52.00
2018-03-06T18:30:50.622Z,51.93
2018-03-06T18:33:18.946Z,61.97
2018-03-06T18:35:47.370Z,55.57
2018-03-06T18:38:15.786Z,58.57
2018-03-06T18:40:44.129Z,67.93
2018-03-06T18:43:12.549Z,57.67
2018-03-06T18:45:40.954Z,57.53
2018-03-06T18:48:09.279Z,61.67
2018-03-06T18:50:51.207Z,61.03
2018-03-06T18:53:19.513Z,57.57
2018-03-06T18:55:47.835Z,58.73
2018-03-06T18:58:16.547Z,48.70
2018-03-06T19:01:05.529Z,46.17
2018-03-06T19:03:45.734Z,55.10
2018-03-06T19:06:24.004Z,49.83
2018-03-06T19:08:52.338Z,50.10
2018-03-06T19:11:20.752Z,42.80
2018-03-06T19:13:49.039Z,41.13
2018-03-06T19:16:17.521Z,43.03
2018-03-06T19:18:45.851Z,45.97
2018-03-06T19:21:14.266Z,43.80
2018-03-06T19:23:42.656Z,47.47
2018-03-06T19:26:10.985Z,48.67
2018-03-06T19:28:39.318Z,54.77
2018-03-06T19:31:07.634Z,48.63
2018-03-06T19:33:36.017Z,54.30
2018-03-06T19:36:04.343Z,50.00
2018-03-06T19:38:32.712Z,53.60
2018-03-06T19:41:01.068Z,51.50
2018-03-06T19:43:29.428Z,47.77
2018-03-06T19:45:57.775Z,49.93
2018-03-06T19:48:26.169Z,51.53
2018-03-06T19:50:54.516Z,53.73
2018-03-06T19:53:22.843Z,52.70
2018-03-06T19:55:51.244Z,52.70
2018-03-06T19:58:19.556Z,53.00
2018-03-06T20:00:48.125Z,54.83
2018-03-06T20:03:16.561Z,53.50
2018-03-06T20:05:45.045Z,56.07
2018-03-06T20:08:13.578Z,52.10
2018-03-06T20:10:42.005Z,51.67
2018-03-06T20:13:10.404Z,55.00
2018-03-06T20:15:38.806Z,64.13
2018-03-06T20:18:07.179Z,52.20
2018-03-06T20:20:35.583Z,58.60
2018-03-06T20:23:03.957Z,58.57
2018-03-06T20:25:37.792Z,64.40
2018-03-06T20:28:06.118Z,54.90
2018-03-06T20:33:40.631Z,58.17
2018-03-06T20:36:08.962Z,54.87
2018-03-06T20:38:42.866Z,52.93
2018-03-06T20:41:11.202Z,57.57
2018-03-06T20:43:39.513Z,49.47
2018-03-06T20:46:13.581Z,54.80
2018-03-06T20:48:42.429Z,57.47
2018-03-06T20:51:10.747Z,51.83
2018-03-06T20:53:44.485Z,49.90
2018-03-06T20:56:12.825Z,51.47
2018-03-06T20:58:41.180Z,53.37
2018-03-06T21:01:09.501Z,50.70
2018-03-06T21:03:37.834Z,54.00
2018-03-06T21:06:06.173Z,55.07
2018-03-06T21:08:34.595Z,52.37
2018-03-06T21:11:02.898Z,56.63
2018-03-06T21:13:31.274Z,59.03
2018-03-06T21:16:00.050Z,57.13
2018-03-06T21:18:28.397Z,57.30
2018-03-06T21:20:56.815Z,56.77
2018-03-06T21:23:25.165Z,57.23
2018-03-06T21:25:53.480Z,57.67
2018-03-06T21:28:21.821Z,51.87
2018-03-06T21:30:50.245Z,55.53
2018-03-06T21:33:18.649Z,58.47
2018-03-06T21:35:47.058Z,55.43
2018-03-06T21:38:15.372Z,54.50
2018-03-06T21:40:43.766Z,56.77
2018-03-06T21:43:12.244Z,56.37
2018-03-06T21:45:40.565Z,58.90
2018-03-06T21:48:09.078Z,58.80
2018-03-06T21:50:37.395Z,53.13
2018-03-06T21:53:05.886Z,63.33
2018-03-06T21:55:34.221Z,53.67
2018-03-06T21:58:02.531Z,50.00
2018-03-06T22:00:30.875Z,55.30
2018-03-06T22:02:59.258Z,57.90
2018-03-06T22:05:27.647Z,49.87
2018-03-06T22:07:56.041Z,52.03
2018-03-06T22:10:24.419Z,51.87
2018-03-06T22:12:52.693Z,58.47
2018-03-06T22:15:21.114Z,55.00
2018-03-06T22:17:49.490Z,54.80
2018-03-06T22:20:17.849Z,54.40
2018-03-06T22:22:46.171Z,48.33
2018-03-06T22:25:14.579Z,52.37
2018-03-06T22:27:42.908Z,55.17
2018-03-06T22:30:11.238Z,53.80
2018-03-06T22:32:39.563Z,49.97
2018-03-06T22:35:07.897Z,52.63
2018-03-06T22:37:36.240Z,47.27
2018-03-06T22:40:04.671Z,47.70
2018-03-06T22:42:32.968Z,45.20
2018-03-06T22:45:01.351Z,48.07
2018-03-06T22:47:29.845Z,48.83
2018-03-06T22:49:58.238Z,45.47
2018-03-06T22:52:26.562Z,45.63
2018-03-06T22:54:54.880Z,46.27
2018-03-06T22:57:23.215Z,44.27
2018-03-06T22:59:51.529Z,46.00
2018-03-06T23:02:19.870Z,49.30
2018-03-06T23:04:48.167Z,50.87
2018-03-06T23:07:16.529Z,43.93
2018-03-06T23:09:44.862Z,44.20
2018-03-06T23:12:13.212Z,43.60
2018-03-06T23:14:41.605Z,44.43
2018-03-06T23:17:09.936Z,41.57
2018-03-06T23:19:38.299Z,48.27
2018-03-06T23:22:06.642Z,45.57
2018-03-06T23:24:34.954Z,46.80
2018-03-06T23:27:03.378Z,45.23
2018-03-06T23:29:31.707Z,41.00
2018-03-06T23:32:00.048Z,48.17
2018-03-06T23:34:28.468Z,46.27
2018-03-06T23:36:56.794Z,48.70
2018-03-06T23:39:25.111Z,48.93
2018-03-06T23:41:53.446Z,53.00
2018-03-06T23:44:21.802Z,55.53
2018-03-06T23:46:50.751Z,49.03
2018-03-06T23:49:19.109Z,51.10
2018-03-06T23:51:47.441Z,54.97
2018-03-06T23:54:15.791Z,46.37
2018-03-06T23:56:44.110Z,48.20
2018-03-06T23:59:12.443Z,47.30
